Time;durP1;ratioP1;P1;durP2;ratioP2;P2;SDS_P1;SDS_P2;PMS_P1;PMS_P2;Temp;Humidity;BMP_temperature;BMP_pressure;BME280_temperature;BME280_humidity;BME280_pressure;Samples;Min_cycle;Max_cycle;Signal;HPM_P1;HPM_P2
2021/12/02 00:00:15;;;;;;;2.70;0.60;;;;;;;6.97;78.17;97740.20;104018;1309;25416;-58
2021/12/02 00:03:04;;;;;;;6.30;0.90;;;;;;;6.95;78.25;97735.56;103768;1313;23862;-57
2021/12/02 00:05:33;;;;;;;6.50;0.70;;;;;;;6.94;78.21;97739.46;104086;1312;24235;-58
2021/12/02 00:08:01;;;;;;;5.20;0.80;;;;;;;6.92;78.09;97741.59;103829;1309;25398;-57
2021/12/02 00:10:31;;;;;;;3.60;0.70;;;;;;;6.90;78.07;97741.25;103772;1316;22574;-59
2021/12/02 00:12:59;;;;;;;4.50;0.60;;;;;;;6.89;78.06;97746.95;103768;1312;22569;-57
2021/12/02 00:15:32;;;;;;;3.90;0.80;;;;;;;6.88;77.96;97744.95;103846;1316;22663;-58
2021/12/02 00:18:29;;;;;;;3.40;0.60;;;;;;;6.86;77.86;97744.61;105059;1309;22503;-57
2021/12/02 00:21:04;;;;;;;3.60;0.40;;;;;;;6.85;77.84;97743.30;103806;1310;22568;-60
2021/12/02 00:23:37;;;;;;;3.80;0.50;;;;;;;6.84;77.75;97752.09;103827;1315;24182;-60
2021/12/02 00:26:10;;;;;;;1.60;0.50;;;;;;;6.82;77.83;97752.60;103852;1317;24295;-59
2021/12/02 00:28:40;;;;;;;2.90;0.60;;;;;;;6.81;77.77;97750.33;103872;1309;22537;-57
2021/12/02 00:31:15;;;;;;;4.70;0.60;;;;;;;6.78;77.65;97746.56;103834;1315;22578;-55
2021/12/02 00:33:46;;;;;;;3.20;0.50;;;;;;;6.77;77.45;97747.43;103867;1309;22648;-58
2021/12/02 00:36:15;;;;;;;2.80;0.50;;;;;;;6.78;77.58;97751.91;103784;1315;22617;-58
2021/12/02 00:38:44;;;;;;;2.90;0.50;;;;;;;6.77;77.52;97755.23;103650;1318;23855;-57
2021/12/02 00:41:14;;;;;;;4.10;0.80;;;;;;;6.76;77.48;97761.35;103610;1310;24215;-58
2021/12/02 00:43:45;;;;;;;4.00;0.60;;;;;;;6.75;77.22;97767.67;103875;1316;24260;-56
2021/12/02 00:46:16;;;;;;;3.40;0.50;;;;;;;6.78;77.18;97766.23;103738;1314;24239;-57
2021/12/02 00:48:44;;;;;;;3.70;0.50;;;;;;;6.79;77.19;97765.96;103536;1316;25397;-57
2021/12/02 00:51:13;;;;;;;2.50;0.50;;;;;;;6.78;77.08;97770.96;103739;1314;25035;-61
2021/12/02 00:53:45;;;;;;;2.40;0.40;;;;;;;6.76;76.72;97773.34;103957;1316;22562;-59
2021/12/02 00:56:15;;;;;;;2.90;0.50;;;;;;;6.76;76.49;97780.66;103805;1315;24392;-58
2021/12/02 00:58:45;;;;;;;;;;;;;;;6.77;76.41;97779.23;103803;1315;27057;-57
2021/12/02 01:01:14;;;;;;;2.10;0.30;;;;;;;6.77;76.44;97783.84;103720;1315;24297;-59
2021/12/02 01:03:43;;;;;;;3.00;0.50;;;;;;;6.78;76.36;97784.79;103872;1314;22646;-58
2021/12/02 01:06:12;;;;;;;3.40;0.50;;;;;;;6.79;76.30;97785.73;104013;1314;25956;-58
2021/12/02 01:08:40;;;;;;;2.60;0.40;;;;;;;6.80;76.29;97790.16;103958;1310;22867;-57
2021/12/02 01:11:09;;;;;;;3.60;0.50;;;;;;;6.82;76.12;97789.60;103697;1316;24382;-60
2021/12/02 01:13:37;;;;;;;5.80;0.40;;;;;;;6.83;76.18;97787.64;103714;1316;22814;-58
2021/12/02 01:16:08;;;;;;;2.80;0.50;;;;;;;6.82;76.23;97791.02;103674;1315;22667;-57
2021/12/02 01:18:36;;;;;;;3.70;0.50;;;;;;;6.81;76.18;97799.18;103783;1315;23179;-58
2021/12/02 01:21:05;;;;;;;3.10;0.40;;;;;;;6.80;76.29;97796.61;103729;1314;22644;-58
2021/12/02 01:23:34;;;;;;;1.90;0.30;;;;;;;6.82;76.29;97791.63;103833;1309;22582;-60
2021/12/02 01:26:05;;;;;;;4.30;0.50;;;;;;;6.82;76.29;97793.03;103758;1317;22640;-58
2021/12/02 01:28:35;;;;;;;2.80;0.50;;;;;;;6.83;76.28;97797.06;103835;1316;22642;-58
2021/12/02 01:31:04;;;;;;;3.10;0.40;;;;;;;6.85;76.27;97789.44;104083;1315;22702;-55
2021/12/02 01:33:35;;;;;;;2.80;0.40;;;;;;;6.88;76.31;97788.82;103671;1315;22680;-58
2021/12/02 01:36:05;;;;;;;2.50;0.40;;;;;;;6.89;76.38;97786.98;103683;1315;25441;-57
2021/12/02 01:38:34;;;;;;;2.10;0.40;;;;;;;6.90;76.35;97791.27;103637;1315;25462;-58
2021/12/02 01:41:05;;;;;;;3.80;0.50;;;;;;;6.92;76.27;97791.46;103663;1315;24237;-58
2021/12/02 01:43:52;;;;;;;2.00;0.50;;;;;;;6.93;76.08;97787.46;103685;1317;22557;-58
2021/12/02 01:46:23;;;;;;;3.30;0.50;;;;;;;6.95;76.11;97793.51;103663;1315;25916;-60
2021/12/02 01:49:00;;;;;;;3.80;0.60;;;;;;;6.96;76.10;97812.36;103514;1316;25489;-59
2021/12/02 01:51:30;;;;;;;4.70;0.60;;;;;;;6.96;76.13;97842.98;103834;1315;24232;-59
2021/12/02 01:54:07;;;;;;;5.00;0.70;;;;;;;6.94;76.20;97859.88;103778;1315;25411;-57
2021/12/02 01:56:42;;;;;;;5.00;0.90;;;;;;;6.93;76.40;97862.96;103851;1316;22567;-57
2021/12/02 01:59:13;;;;;;;3.10;0.50;;;;;;;6.87;75.50;97846.09;103835;1315;22744;-60
2021/12/02 02:01:44;;;;;;;5.70;0.80;;;;;;;6.81;75.80;97842.30;103791;1318;23134;-59
2021/12/02 02:04:13;;;;;;;6.90;1.10;;;;;;;6.75;75.20;97847.32;103806;1315;22532;-56
2021/12/02 02:06:52;;;;;;;5.00;0.70;;;;;;;6.72;74.54;97844.96;103724;1316;22592;-57
2021/12/02 02:09:23;;;;;;;2.60;0.50;;;;;;;6.69;74.13;97846.02;103852;1316;25394;-57
2021/12/02 02:11:51;;;;;;;2.40;0.30;;;;;;;6.65;73.15;97844.62;103808;1315;24215;-58
2021/12/02 02:14:20;;;;;;;4.00;0.50;;;;;;;6.64;73.25;97844.59;103661;1315;24263;-59
2021/12/02 02:16:49;;;;;;;8.30;1.20;;;;;;;6.64;73.10;97851.65;103761;1316;25482;-57
2021/12/02 02:19:18;;;;;;;5.50;0.60;;;;;;;6.64;73.36;97856.59;103681;1316;25323;-56
2021/12/02 02:21:46;;;;;;;4.60;0.60;;;;;;;6.64;72.89;97857.24;103606;1315;24424;-58
2021/12/02 02:24:15;;;;;;;8.70;1.40;;;;;;;6.65;73.06;97859.60;103615;1315;24233;-58
2021/12/02 02:26:44;;;;;;;6.60;0.80;;;;;;;6.65;72.98;97871.11;103359;1318;22577;-57
2021/12/02 02:29:14;;;;;;;4.80;0.60;;;;;;;6.66;72.86;97871.65;103541;1315;25746;-57
2021/12/02 02:31:43;;;;;;;7.50;1.50;;;;;;;6.67;72.14;97869.63;103732;1316;22719;-57
2021/12/02 02:34:12;;;;;;;5.90;0.80;;;;;;;6.69;72.27;97869.33;103727;1313;25463;-57
2021/12/02 02:36:50;;;;;;;6.70;0.60;;;;;;;6.68;72.31;97863.92;103667;1315;26779;-57
2021/12/02 02:39:19;;;;;;;5.40;0.50;;;;;;;6.67;71.91;97864.03;103560;1315;22574;-58
2021/12/02 02:41:55;;;;;;;4.40;0.50;;;;;;;6.65;71.40;97872.25;103846;1315;22555;-58
2021/12/02 02:44:24;;;;;;;6.00;0.80;;;;;;;6.63;71.43;97884.66;104557;1315;22521;-57
2021/12/02 02:46:52;;;;;;;6.80;0.80;;;;;;;6.63;71.70;97886.17;104898;1316;23443;-57
2021/12/02 02:49:21;;;;;;;4.20;0.50;;;;;;;6.61;71.60;97879.07;103770;1315;26407;-58
2021/12/02 02:51:50;;;;;;;5.30;0.70;;;;;;;6.57;71.08;97877.06;103880;1314;22671;-58
2021/12/02 02:54:19;;;;;;;7.20;0.70;;;;;;;6.55;70.73;97877.78;103729;1315;22857;-58
2021/12/02 02:56:53;;;;;;;2.80;0.40;;;;;;;6.53;71.00;97881.66;103461;1315;22764;-57
2021/12/02 02:59:31;;;;;;;9.60;0.80;;;;;;;6.53;71.03;97884.89;103544;1315;22505;-56
2021/12/02 03:02:14;;;;;;;3.10;0.50;;;;;;;6.51;71.61;97891.60;103736;1314;22599;-57
2021/12/02 03:04:52;;;;;;;1.40;0.20;;;;;;;6.48;72.30;97894.84;103785;1316;25570;-58
2021/12/02 03:07:28;;;;;;;3.90;0.40;;;;;;;6.41;72.70;97895.65;103489;1315;24883;-59
2021/12/02 03:10:05;;;;;;;1.90;0.30;;;;;;;6.35;72.79;97893.59;103637;1316;22613;-58
2021/12/02 03:12:37;;;;;;;6.80;0.70;;;;;;;6.32;73.15;97901.27;103825;1309;24263;-57
2021/12/02 03:17:54;;;;;;;7.30;0.60;;;;;;;6.23;73.31;97917.69;103707;1315;22509;-57
2021/12/02 03:20:21;;;;;;;3.50;0.60;;;;;;;6.20;74.13;97913.27;103692;1315;22698;-60
2021/12/02 03:22:50;;;;;;;1.20;0.30;;;;;;;6.14;74.15;97914.74;103662;1314;26721;-55
2021/12/02 03:25:18;;;;;;;4.20;0.40;;;;;;;6.09;74.21;97916.16;103662;1309;25898;-58
2021/12/02 03:27:46;;;;;;;2.80;0.50;;;;;;;6.03;74.25;97916.95;103710;1309;22662;-57
2021/12/02 03:30:14;;;;;;;5.40;0.60;;;;;;;5.97;74.25;97917.72;103776;1315;22641;-57
2021/12/02 03:32:44;;;;;;;7.50;0.70;;;;;;;5.92;74.10;97916.36;103615;1315;25270;-58
2021/12/02 03:35:12;;;;;;;5.10;0.60;;;;;;;5.89;74.08;97923.66;103668;1315;22585;-59
2021/12/02 03:37:40;;;;;;;4.70;0.40;;;;;;;5.88;74.20;97918.62;103612;1316;24298;-57
2021/12/02 03:40:12;;;;;;;2.40;0.30;;;;;;;5.86;74.23;97922.61;103583;1309;22630;-58
2021/12/02 03:42:46;;;;;;;2.70;0.30;;;;;;;5.85;74.01;97935.90;103662;1316;22609;-57
2021/12/02 03:45:14;;;;;;;3.50;0.50;;;;;;;5.87;73.90;97929.80;103639;1315;22564;-57
2021/12/02 03:47:43;;;;;;;2.70;0.50;;;;;;;5.89;74.06;97933.58;103675;1315;25885;-56
2021/12/02 03:50:12;;;;;;;1.80;0.30;;;;;;;5.89;73.92;97937.45;103830;1314;25373;-60
2021/12/02 03:52:40;;;;;;;3.00;0.50;;;;;;;5.90;74.03;97932.28;103631;1315;24365;-58
2021/12/02 03:55:10;;;;;;;2.60;0.40;;;;;;;5.91;74.14;97939.73;103655;1315;26623;-57
2021/12/02 03:57:38;;;;;;;3.60;0.40;;;;;;;5.92;74.18;97948.48;103736;1315;24205;-57
2021/12/02 04:00:09;;;;;;;2.80;0.40;;;;;;;5.92;74.10;97947.73;103628;1309;25493;-59
2021/12/02 04:02:38;;;;;;;2.30;0.30;;;;;;;5.93;74.16;97951.81;103677;1310;22641;-57
2021/12/02 04:05:08;;;;;;;3.20;0.60;;;;;;;5.94;74.30;97953.47;103530;1315;25763;-60
2021/12/02 04:07:36;;;;;;;1.40;0.30;;;;;;;5.93;74.17;97956.04;103851;1316;24188;-59
2021/12/02 04:10:05;;;;;;;4.10;0.40;;;;;;;5.93;74.37;97964.55;103655;1314;22534;-57
2021/12/02 04:12:45;;;;;;;2.90;0.40;;;;;;;5.92;74.29;97966.23;103700;1313;22679;-58
2021/12/02 04:15:22;;;;;;;2.40;0.40;;;;;;;5.91;74.35;97966.50;103629;1312;25960;-57
2021/12/02 04:17:52;;;;;;;4.30;0.80;;;;;;;5.89;74.36;97969.92;103776;1315;25395;-57
2021/12/02 04:20:22;;;;;;;5.00;0.80;;;;;;;5.87;74.17;97971.42;103672;1309;22593;-58
2021/12/02 04:22:50;;;;;;;7.30;1.00;;;;;;;5.84;74.22;97976.30;103876;1316;22784;-59
2021/12/02 04:25:20;;;;;;;4.00;0.50;;;;;;;5.80;74.23;97979.65;103577;1313;22571;-56
2021/12/02 04:27:50;;;;;;;2.80;0.40;;;;;;;5.76;74.13;97990.92;103861;1313;25467;-57
2021/12/02 04:30:22;;;;;;;1.20;0.40;;;;;;;5.72;74.15;97984.33;103706;1314;25984;-59
2021/12/02 04:32:51;;;;;;;2.00;0.30;;;;;;;5.68;74.35;97991.26;103872;1315;22723;-57
2021/12/02 04:35:19;;;;;;;1.00;0.30;;;;;;;5.64;74.17;98001.81;103808;1310;22578;-59
2021/12/02 04:37:51;;;;;;;0.80;0.20;;;;;;;5.61;74.21;98005.29;103636;1309;203178;-55
2021/12/02 04:40:21;;;;;;;0.50;0.10;;;;;;;5.58;74.08;98009.45;103537;1312;25910;-57
2021/12/02 04:42:49;;;;;;;1.00;0.20;;;;;;;5.56;74.22;98015.08;103447;1315;24215;-57
2021/12/02 04:45:17;;;;;;;1.10;0.30;;;;;;;5.54;74.28;98023.73;103621;1314;22610;-57
2021/12/02 04:47:46;;;;;;;3.00;0.40;;;;;;;5.53;74.22;98030.31;103644;1309;22719;-57
2021/12/02 04:50:15;;;;;;;4.40;0.60;;;;;;;5.51;74.29;98034.69;103530;1314;22570;-55
2021/12/02 04:52:43;;;;;;;2.00;0.30;;;;;;;5.50;74.03;98039.77;103906;1310;22648;-58
2021/12/02 04:55:12;;;;;;;3.10;0.30;;;;;;;5.49;73.34;98040.86;103714;1312;25592;-60
2021/12/02 04:57:40;;;;;;;1.20;0.10;;;;;;;5.48;73.30;98041.77;103554;1310;22787;-55
2021/12/02 05:00:11;;;;;;;0.70;0.20;;;;;;;5.47;73.24;98042.67;103464;1312;24177;-56
2021/12/02 05:02:40;;;;;;;3.00;0.30;;;;;;;5.46;72.90;98040.55;103621;1315;23569;-56
2021/12/02 05:05:10;;;;;;;0.70;0.10;;;;;;;5.44;72.69;98044.67;103723;1315;22578;-60
2021/12/02 05:07:38;;;;;;;2.00;0.80;;;;;;;5.42;72.50;98039.08;103644;1316;24256;-59
2021/12/02 05:10:08;;;;;;;1.40;0.10;;;;;;;5.40;72.28;98038.73;103455;1309;22656;-56
2021/12/02 05:12:36;;;;;;;1.60;0.10;;;;;;;5.36;72.12;98039.20;103581;1316;22799;-56
2021/12/02 05:15:06;;;;;;;2.50;0.20;;;;;;;5.31;72.08;98036.98;103609;1316;26013;-57
2021/12/02 05:17:34;;;;;;;2.80;0.20;;;;;;;5.26;71.73;98037.16;103538;1309;24250;-68
2021/12/02 05:20:03;;;;;;;0.60;0.10;;;;;;;5.22;71.76;98041.96;103592;1309;22819;-61
2021/12/02 05:22:31;;;;;;;4.40;0.30;;;;;;;5.17;71.70;98049.08;103543;1316;24205;-58
2021/12/02 05:24:59;;;;;;;1.40;0.10;;;;;;;5.12;71.67;98048.59;103599;1309;25555;-59
2021/12/02 05:27:27;;;;;;;1.10;0.20;;;;;;;5.09;71.61;98044.80;103506;1309;22555;-58
2021/12/02 05:29:56;;;;;;;1.10;0.20;;;;;;;5.05;71.51;98041.32;103412;1312;22700;-58
2021/12/02 05:32:24;;;;;;;3.60;0.20;;;;;;;5.03;71.28;98041.50;103723;1309;24266;-59
2021/12/02 05:34:52;;;;;;;1.60;0.20;;;;;;;4.99;71.29;98046.36;103561;1315;23015;-58
2021/12/02 05:37:20;;;;;;;1.90;0.10;;;;;;;4.97;71.29;98044.09;103693;1316;22808;-55
2021/12/02 05:39:49;;;;;;;2.80;0.40;;;;;;;4.94;71.05;98049.50;104914;1314;25585;-58
2021/12/02 05:42:17;;;;;;;1.90;0.20;;;;;;;4.91;70.97;98047.77;104424;1316;23005;-56
2021/12/02 05:44:45;;;;;;;2.20;0.10;;;;;;;4.89;70.98;98051.69;103822;1309;24248;-57
2021/12/02 05:47:14;;;;;;;3.80;0.30;;;;;;;4.86;70.85;98047.70;103409;1312;24361;-56
2021/12/02 05:49:42;;;;;;;1.30;0.10;;;;;;;4.83;70.97;98058.03;103468;1309;25654;-57
2021/12/02 05:52:10;;;;;;;1.20;0.10;;;;;;;4.80;70.78;98054.85;104048;1312;22590;-58
2021/12/02 05:54:39;;;;;;;2.30;0.40;;;;;;;4.78;70.20;98060.00;103494;1309;24526;-57
2021/12/02 05:57:07;;;;;;;2.90;0.30;;;;;;;4.77;70.18;98063.57;103580;1309;22651;-59
2021/12/02 05:59:35;;;;;;;3.50;0.20;;;;;;;4.76;70.21;98063.91;103192;1309;22780;-54
2021/12/02 06:02:07;;;;;;;3.40;0.30;;;;;;;4.74;70.35;98066.95;103459;1309;25613;-57
2021/12/02 06:04:39;;;;;;;1.70;0.30;;;;;;;4.72;70.22;98068.85;103333;1315;22587;-57
2021/12/02 06:07:06;;;;;;;2.20;0.20;;;;;;;4.68;70.19;98068.58;103187;1309;23153;-57
2021/12/02 06:09:35;;;;;;;3.10;0.50;;;;;;;4.64;70.03;98068.35;103054;1312;24418;-56
2021/12/02 06:12:04;;;;;;;5.90;0.40;;;;;;;4.61;70.03;98064.86;102998;1309;24264;-59
2021/12/02 06:14:33;;;;;;;6.00;0.40;;;;;;;4.59;69.98;98061.42;103775;1298;22666;-57
2021/12/02 06:17:01;;;;;;;2.60;0.20;;;;;;;4.58;69.71;98068.23;106077;1315;22607;-55
2021/12/02 06:19:30;;;;;;;6.60;0.40;;;;;;;4.55;69.79;98072.24;103099;1316;24620;-56
2021/12/02 06:21:58;;;;;;;6.00;0.80;;;;;;;4.54;69.82;98068.23;103214;1314;22652;-55
2021/12/02 06:24:30;;;;;;;2.00;0.20;;;;;;;4.52;69.60;98065.95;103225;1314;25728;-57
2021/12/02 06:26:58;;;;;;;2.70;0.40;;;;;;;4.51;69.50;98071.62;106747;1310;22578;-58
2021/12/02 06:29:27;;;;;;;1.90;0.20;;;;;;;4.51;69.40;98073.73;103097;1315;25708;-57
2021/12/02 06:31:56;;;;;;;3.80;0.40;;;;;;;4.51;69.50;98074.77;103320;1312;22632;-57
2021/12/02 06:34:25;;;;;;;5.30;0.20;;;;;;;4.48;69.28;98076.52;103310;1314;24290;-57
2021/12/02 06:36:53;;;;;;;7.20;0.60;;;;;;;4.46;69.20;98078.61;103138;1315;25375;-57
2021/12/02 06:39:21;;;;;;;3.40;0.30;;;;;;;4.45;69.19;98083.63;103199;1314;22558;-58
2021/12/02 06:41:50;;;;;;;4.20;0.90;;;;;;;4.43;69.04;98090.42;103396;1311;22603;-57
2021/12/02 06:44:18;;;;;;;8.90;1.60;;;;;;;4.42;68.71;98099.11;103390;1314;23955;-58
2021/12/02 06:46:47;;;;;;;2.70;0.30;;;;;;;4.40;68.86;98108.34;103171;1314;22648;-57
2021/12/02 06:49:16;;;;;;;3.30;0.40;;;;;;;4.40;68.87;98116.91;103388;1316;22648;-62
2021/12/02 06:51:48;;;;;;;2.50;0.30;;;;;;;4.38;68.43;98128.86;103262;1308;24311;-65
2021/12/02 06:54:16;;;;;;;1.50;0.20;;;;;;;4.37;68.53;98132.30;103145;1310;22706;-63
2021/12/02 06:56:44;;;;;;;2.80;0.20;;;;;;;4.36;68.54;98131.30;103218;1310;25378;-58
2021/12/02 06:59:13;;;;;;;4.10;0.30;;;;;;;4.36;68.42;98131.60;103191;1315;25582;-56
2021/12/02 07:01:41;;;;;;;2.20;0.20;;;;;;;4.37;68.44;98137.73;103259;1314;24123;-58
2021/12/02 07:04:09;;;;;;;3.40;0.30;;;;;;;4.37;68.41;98142.77;103285;1311;23984;-57
2021/12/02 07:06:39;;;;;;;4.00;0.30;;;;;;;4.38;68.16;98143.77;103117;1312;24124;-55
2021/12/02 07:09:07;;;;;;;3.10;0.50;;;;;;;4.38;68.10;98150.16;103664;1310;25292;-58
2021/12/02 07:11:36;;;;;;;6.80;0.40;;;;;;;4.38;68.28;98154.33;103108;1311;22717;-58
2021/12/02 07:14:06;;;;;;;2.40;0.20;;;;;;;4.40;67.91;98161.93;103102;1316;24284;-56
2021/12/02 07:16:36;;;;;;;3.30;0.30;;;;;;;4.43;67.94;98169.29;103118;1314;23140;-58
2021/12/02 07:19:05;;;;;;;2.60;0.40;;;;;;;4.45;67.93;98175.45;103406;1316;23233;-58
2021/12/02 07:21:36;;;;;;;4.60;0.20;;;;;;;4.48;67.54;98180.04;103162;1315;25245;-57
2021/12/02 07:24:05;;;;;;;5.10;0.40;;;;;;;4.52;67.87;98182.19;103428;1315;22593;-56
2021/12/02 07:26:35;;;;;;;4.10;0.50;;;;;;;4.56;67.83;98189.02;103346;1315;25460;-58
2021/12/02 07:29:03;;;;;;;3.70;0.20;;;;;;;4.59;67.86;98187.73;103185;1311;25336;-58
2021/12/02 07:31:34;;;;;;;4.50;0.30;;;;;;;4.61;67.79;98199.02;103434;1315;23648;-57
2021/12/02 07:34:03;;;;;;;3.20;0.30;;;;;;;4.64;67.71;98196.27;103091;1315;22739;-59
2021/12/02 07:36:32;;;;;;;5.20;0.60;;;;;;;4.68;67.68;98199.73;103090;1311;23035;-56
2021/12/02 07:39:03;;;;;;;4.90;0.40;;;;;;;4.70;67.55;98201.01;103276;1315;22584;-58
2021/12/02 07:41:32;;;;;;;4.00;0.40;;;;;;;4.73;67.67;98205.16;103455;1309;22574;-57
2021/12/02 07:44:02;;;;;;;1.30;0.20;;;;;;;4.75;67.63;98211.45;103184;1311;22646;-57
2021/12/02 07:46:31;;;;;;;5.00;0.40;;;;;;;4.77;67.09;98227.95;103206;1314;25523;-58
2021/12/02 07:49:00;;;;;;;5.30;0.30;;;;;;;4.80;67.01;98225.17;103258;1314;24778;-58
2021/12/02 07:51:33;;;;;;;3.00;0.30;;;;;;;4.83;67.30;98229.89;103278;1314;22617;-57
2021/12/02 07:54:02;;;;;;;2.10;0.30;;;;;;;4.85;67.06;98228.80;103259;1315;26690;-58
2021/12/02 07:56:34;;;;;;;1.80;0.30;;;;;;;4.86;67.18;98225.63;103153;1309;22583;-58
2021/12/02 07:59:03;;;;;;;4.80;0.40;;;;;;;4.87;67.29;98222.68;103309;1312;24233;-58
2021/12/02 08:01:35;;;;;;;2.10;0.30;;;;;;;4.87;67.44;98219.27;103380;1314;22665;-58
2021/12/02 08:04:03;;;;;;;3.00;0.30;;;;;;;4.88;67.36;98222.34;103334;1311;24367;-57
2021/12/02 08:06:32;;;;;;;2.80;0.30;;;;;;;4.88;66.88;98229.09;103248;1312;26796;-57
2021/12/02 08:09:01;;;;;;;1.70;0.20;;;;;;;4.89;66.72;98235.58;103220;1310;22744;-57
2021/12/02 08:11:29;;;;;;;8.40;0.40;;;;;;;4.91;67.04;98234.22;103318;1312;22650;-58
2021/12/02 08:13:58;;;;;;;3.90;0.30;;;;;;;4.91;66.88;98240.27;103332;1317;22588;-57
2021/12/02 08:16:27;;;;;;;2.70;0.50;;;;;;;4.92;67.03;98239.71;103252;1315;25366;-57
2021/12/02 08:18:55;;;;;;;2.30;0.30;;;;;;;4.94;66.88;98242.10;103199;1312;22611;-57
2021/12/02 08:21:23;;;;;;;5.30;0.80;;;;;;;4.96;66.90;98246.33;103062;1311;25689;-59
2021/12/02 08:23:51;;;;;;;1.90;0.30;;;;;;;4.97;66.92;98249.39;103191;1314;22617;-58
2021/12/02 08:26:20;;;;;;;4.10;0.60;;;;;;;4.97;66.66;98249.00;103120;1315;24162;-58
2021/12/02 08:28:48;;;;;;;7.90;0.50;;;;;;;4.98;66.77;98251.38;103209;1312;22581;-58
2021/12/02 08:31:16;;;;;;;4.60;0.80;;;;;;;4.98;66.73;98248.41;103112;1315;24411;-57
2021/12/02 08:33:48;;;;;;;3.60;0.40;;;;;;;4.97;67.03;98251.20;103097;1309;22796;-57
2021/12/02 08:36:18;;;;;;;5.00;0.60;;;;;;;4.96;67.10;98260.42;103272;1314;24130;-55
2021/12/02 08:38:47;;;;;;;5.00;0.40;;;;;;;4.94;67.21;98265.12;103291;1313;22840;-55
2021/12/02 08:41:18;;;;;;;8.40;0.50;;;;;;;4.93;66.83;98266.41;103196;1312;25330;-58
2021/12/02 08:43:49;;;;;;;6.80;0.80;;;;;;;4.89;67.06;98268.85;103153;1316;23282;-56
2021/12/02 08:46:20;;;;;;;;;;;;;;;4.84;66.88;98273.87;103228;1311;24208;-56
2021/12/02 08:48:52;;;;;;;9.80;0.80;;;;;;;4.79;66.96;98278.45;103208;1311;23170;-56
2021/12/02 08:51:20;;;;;;;3.70;0.60;;;;;;;4.75;66.67;98276.80;103352;1309;23149;-56
2021/12/02 08:53:49;;;;;;;3.70;0.30;;;;;;;4.70;66.29;98289.50;103169;1315;24318;-54
2021/12/02 08:56:19;;;;;;;4.60;0.40;;;;;;;4.67;66.26;98294.30;103442;1309;26645;-57
2021/12/02 08:58:48;;;;;;;3.80;0.30;;;;;;;4.62;66.23;98303.80;103549;1316;22683;-55
2021/12/02 09:01:17;;;;;;;7.30;0.40;;;;;;;4.60;65.50;98305.27;103374;1315;25682;-57
2021/12/02 09:03:46;;;;;;;4.40;0.50;;;;;;;4.59;65.74;98305.77;103187;1309;24214;-55
2021/12/02 09:06:14;;;;;;;5.00;0.40;;;;;;;4.58;65.82;98307.55;103157;1310;22607;-57
2021/12/02 09:08:43;;;;;;;5.50;0.60;;;;;;;4.57;66.04;98310.25;103159;1311;25428;-57
2021/12/02 09:11:11;;;;;;;3.10;0.40;;;;;;;4.57;65.59;98311.82;103397;1311;22597;-57
2021/12/02 09:13:40;;;;;;;4.00;0.30;;;;;;;4.59;65.34;98305.96;103222;1316;22644;-58
2021/12/02 09:16:08;;;;;;;3.40;0.30;;;;;;;4.61;65.27;98303.63;103267;1311;22555;-56
2021/12/02 09:18:37;;;;;;;5.20;0.40;;;;;;;4.64;65.15;98303.06;103373;1313;22564;-56
2021/12/02 09:21:06;;;;;;;5.90;0.30;;;;;;;4.66;64.98;98308.77;103185;1311;22566;-58
2021/12/02 09:23:35;;;;;;;5.40;0.30;;;;;;;4.70;65.09;98304.61;103259;1313;22973;-56
2021/12/02 09:26:03;;;;;;;4.40;0.40;;;;;;;4.73;65.03;98309.73;103276;1315;22596;-58
2021/12/02 09:28:31;;;;;;;5.40;0.40;;;;;;;4.76;64.93;98312.14;103199;1315;27032;-55
2021/12/02 09:30:59;;;;;;;7.00;0.40;;;;;;;4.79;64.84;98316.45;103216;1315;23965;-57
2021/12/02 09:33:28;;;;;;;6.00;0.30;;;;;;;4.83;65.01;98322.21;103233;1315;22764;-56
2021/12/02 09:35:56;;;;;;;5.20;0.30;;;;;;;4.87;65.16;98321.45;103196;1309;23138;-57
2021/12/02 09:38:25;;;;;;;2.70;0.30;;;;;;;4.89;64.92;98321.84;103228;1311;22734;-58
2021/12/02 09:40:54;;;;;;;5.10;0.30;;;;;;;4.92;64.83;98322.15;103330;1316;22838;-57
2021/12/02 09:43:24;;;;;;;3.10;0.40;;;;;;;4.95;64.81;98325.80;103177;1310;24109;-58
2021/12/02 09:45:52;;;;;;;3.10;0.30;;;;;;;4.99;64.52;98321.09;103241;1313;25541;-58
2021/12/02 09:48:24;;;;;;;3.00;0.30;;;;;;;5.04;64.81;98319.92;103249;1310;22600;-57
2021/12/02 09:50:56;;;;;;;9.50;0.60;;;;;;;5.10;64.85;98325.11;103249;1311;22610;-58
2021/12/02 09:53:26;;;;;;;2.90;0.50;;;;;;;5.16;65.12;98326.56;103258;1312;25429;-54
2021/12/02 09:55:57;;;;;;;5.20;0.50;;;;;;;5.21;64.77;98332.86;103227;1310;24333;-58
2021/12/02 09:58:26;;;;;;;6.00;1.00;;;;;;;5.27;64.32;98332.26;103483;1317;24989;-59
2021/12/02 10:00:59;;;;;;;5.90;0.40;;;;;;;5.32;64.08;98336.84;103184;1312;22598;-57
2021/12/02 10:03:31;;;;;;;7.40;0.50;;;;;;;5.35;63.69;98341.69;103271;1314;25572;-57
2021/12/02 10:06:04;;;;;;;3.50;0.50;;;;;;;5.38;63.88;98336.83;103149;1310;23165;-58
2021/12/02 10:08:39;;;;;;;7.70;0.90;;;;;;;5.45;63.71;98344.34;103200;1314;25471;-58
2021/12/02 10:11:10;;;;;;;5.70;0.80;;;;;;;5.50;63.67;98340.96;103153;1316;25313;-57
2021/12/02 10:13:45;;;;;;;2.20;0.30;;;;;;;5.54;61.64;98342.98;103201;1316;25947;-57
2021/12/02 10:16:22;;;;;;;3.00;0.30;;;;;;;5.52;61.02;98354.17;103259;1309;22577;-57
2021/12/02 10:19:00;;;;;;;4.40;0.50;;;;;;;5.48;60.72;98347.19;103161;1312;22865;-57
2021/12/02 10:21:35;;;;;;;2.90;0.20;;;;;;;5.46;60.92;98354.02;103205;1314;26681;-57
2021/12/02 10:24:07;;;;;;;4.00;0.40;;;;;;;5.43;60.93;98347.66;103237;1310;22593;-56
2021/12/02 10:26:39;;;;;;;8.20;0.40;;;;;;;5.43;61.04;98354.80;103265;1312;22591;-57
2021/12/02 10:29:17;;;;;;;4.20;0.60;;;;;;;5.42;60.40;98354.27;103132;1316;22587;-57
2021/12/02 10:31:48;;;;;;;5.60;0.50;;;;;;;5.43;60.62;98350.87;103349;1317;24254;-57
2021/12/02 10:34:18;;;;;;;3.90;0.50;;;;;;;5.43;60.90;98349.91;103223;1311;22582;-58
2021/12/02 10:36:47;;;;;;;5.40;0.70;;;;;;;5.44;60.98;98352.69;103243;1309;24429;-59
2021/12/02 10:39:19;;;;;;;7.70;0.50;;;;;;;5.45;60.83;98352.30;103424;1310;24359;-58
2021/12/02 10:41:58;;;;;;;7.40;0.70;;;;;;;5.46;60.70;98355.58;103354;1309;23946;-58
2021/12/02 10:44:30;;;;;;;5.10;0.50;;;;;;;5.47;60.10;98355.34;103256;1316;27625;-56
2021/12/02 10:47:02;;;;;;;2.10;0.30;;;;;;;5.46;59.48;98351.09;103274;1315;25370;-58
2021/12/02 10:49:31;;;;;;;5.20;0.30;;;;;;;5.44;59.99;98351.41;103329;1315;25296;-57
2021/12/02 10:52:03;;;;;;;6.30;0.50;;;;;;;5.45;60.16;98353.75;103247;1311;24297;-58
2021/12/02 10:54:33;;;;;;;2.90;0.30;;;;;;;5.48;60.52;98353.98;103371;1309;22601;-56
2021/12/02 10:57:06;;;;;;;;;;;;;;;5.51;60.33;98361.71;102982;1311;22567;-56
2021/12/02 10:59:39;;;;;;;4.70;0.50;;;;;;;5.53;60.51;98362.23;103083;1311;22700;-58
2021/12/02 11:02:17;;;;;;;4.80;0.50;;;;;;;5.53;60.62;98364.29;103181;1312;22563;-58
2021/12/02 11:04:48;;;;;;;7.10;0.50;;;;;;;5.52;60.61;98361.37;103330;1311;22719;-57
2021/12/02 11:07:33;;;;;;;5.50;0.50;;;;;;;5.51;60.16;98362.45;103161;1316;25429;-57
2021/12/02 11:10:05;;;;;;;4.70;0.70;;;;;;;5.47;60.17;98366.80;103095;1313;25280;-57
2021/12/02 11:12:35;;;;;;;3.70;0.80;;;;;;;5.44;60.09;98374.33;103171;1310;22582;-58
2021/12/02 11:15:11;;;;;;;4.80;0.50;;;;;;;5.42;59.95;98373.30;103824;1309;25457;-57
2021/12/02 11:17:46;;;;;;;7.20;0.40;;;;;;;5.39;60.18;98377.40;103677;1316;22585;-58
2021/12/02 11:20:18;;;;;;;3.20;0.30;;;;;;;5.38;59.93;98384.08;103156;1311;22618;-59
2021/12/02 11:22:48;;;;;;;7.70;0.50;;;;;;;5.38;59.70;98384.48;103441;1317;22684;-60
2021/12/02 11:25:16;;;;;;;6.00;0.40;;;;;;;5.36;59.21;98386.58;103403;1311;22671;-59
2021/12/02 11:27:47;;;;;;;5.80;0.70;;;;;;;5.33;59.76;98385.39;103180;1316;24417;-58
2021/12/02 11:30:19;;;;;;;2.50;0.30;;;;;;;5.32;59.84;98384.17;103421;1309;22579;-56
2021/12/02 11:32:53;;;;;;;7.10;0.60;;;;;;;5.32;59.84;98388.14;103304;1312;25294;-58
2021/12/02 11:35:32;;;;;;;6.30;0.60;;;;;;;5.28;59.47;98390.41;103328;1311;25154;-58
2021/12/02 11:38:06;;;;;;;6.50;0.50;;;;;;;5.24;59.57;98393.85;103370;1316;22585;-59
2021/12/02 11:40:38;;;;;;;3.50;0.30;;;;;;;5.20;59.55;98402.71;103268;1316;22648;-58
2021/12/02 11:43:10;;;;;;;5.30;0.40;;;;;;;5.17;59.23;98402.42;103243;1311;24794;-58
2021/12/02 11:45:45;;;;;;;7.30;0.40;;;;;;;5.14;59.14;98403.80;103340;1310;22783;-59
2021/12/02 11:48:17;;;;;;;3.90;0.40;;;;;;;5.12;58.81;98402.97;103098;1311;22574;-59
2021/12/02 11:50:47;;;;;;;3.20;0.30;;;;;;;5.11;58.46;98409.64;103275;1313;24292;-55